sensor_id;sensor_type;location;lat;lon;timestamp;temperature;humidity
54158;DHT22;40065;49.894;10.358;2022-10-31T00:02:11;11.80;99.90
54158;DHT22;40065;49.894;10.358;2022-10-31T00:07:13;11.80;99.90
54158;DHT22;40065;49.894;10.358;2022-10-31T00:12:15;11.70;99.90
54158;DHT22;40065;49.894;10.358;2022-10-31T00:17:17;11.70;99.90
54158;DHT22;40065;49.894;10.358;2022-10-31T00:22:18;11.80;99.90
54158;DHT22;40065;49.894;10.358;2022-10-31T00:27:20;11.70;99.90
54158;DHT22;40065;49.894;10.358;2022-10-31T00:32:22;11.70;99.90
54158;DHT22;40065;49.894;10.358;2022-10-31T00:37:24;11.80;99.90
54158;DHT22;40065;49.894;10.358;2022-10-31T00:42:25;11.80;99.90
54158;DHT22;40065;49.894;10.358;2022-10-31T00:47:27;11.80;99.90
54158;DHT22;40065;49.894;10.358;2022-10-31T00:52:29;11.80;99.90
54158;DHT22;40065;49.894;10.358;2022-10-31T00:57:31;11.80;99.90
54158;DHT22;40065;49.894;10.358;2022-10-31T01:02:33;11.80;99.90
54158;DHT22;40065;49.894;10.358;2022-10-31T01:07:37;11.70;99.90
54158;DHT22;40065;49.894;10.358;2022-10-31T01:12:44;11.90;99.90
54158;DHT22;40065;49.894;10.358;2022-10-31T01:17:48;11.90;99.90
54158;DHT22;40065;49.894;10.358;2022-10-31T01:22:50;11.60;99.90
54158;DHT22;40065;49.894;10.358;2022-10-31T01:27:52;11.50;99.90
54158;DHT22;40065;49.894;10.358;2022-10-31T01:32:54;11.50;99.90
54158;DHT22;40065;49.894;10.358;2022-10-31T01:37:56;11.40;99.90
54158;DHT22;40065;49.894;10.358;2022-10-31T01:42:57;11.60;99.90
54158;DHT22;40065;49.894;10.358;2022-10-31T01:48:00;11.90;99.90
54158;DHT22;40065;49.894;10.358;2022-10-31T01:53:02;12.20;99.90
54158;DHT22;40065;49.894;10.358;2022-10-31T01:58:19;11.90;99.90
54158;DHT22;40065;49.894;10.358;2022-10-31T02:03:25;11.80;99.90
54158;DHT22;40065;49.894;10.358;2022-10-31T02:08:30;11.70;99.90
54158;DHT22;40065;49.894;10.358;2022-10-31T02:13:33;11.70;99.90
54158;DHT22;40065;49.894;10.358;2022-10-31T02:18:39;11.60;99.90
54158;DHT22;40065;49.894;10.358;2022-10-31T02:24:09;11.60;99.90
54158;DHT22;40065;49.894;10.358;2022-10-31T02:35:02;11.40;99.90
54158;DHT22;40065;49.894;10.358;2022-10-31T02:40:27;11.30;99.90
54158;DHT22;40065;49.894;10.358;2022-10-31T02:45:56;11.20;99.90
54158;DHT22;40065;49.894;10.358;2022-10-31T02:51:01;11.10;99.90
54158;DHT22;40065;49.894;10.358;2022-10-31T02:56:06;11.20;99.90
54158;DHT22;40065;49.894;10.358;2022-10-31T03:01:26;11.20;99.90
54158;DHT22;40065;49.894;10.358;2022-10-31T03:07:03;11.40;99.90
54158;DHT22;40065;49.894;10.358;2022-10-31T03:12:14;11.60;99.90
54158;DHT22;40065;49.894;10.358;2022-10-31T03:17:33;11.70;99.90
54158;DHT22;40065;49.894;10.358;2022-10-31T03:22:37;11.90;99.90
54158;DHT22;40065;49.894;10.358;2022-10-31T03:27:43;11.90;99.90
54158;DHT22;40065;49.894;10.358;2022-10-31T03:32:49;12.00;99.90
54158;DHT22;40065;49.894;10.358;2022-10-31T03:37:54;12.00;99.90
54158;DHT22;40065;49.894;10.358;2022-10-31T03:43:00;12.00;99.90
54158;DHT22;40065;49.894;10.358;2022-10-31T03:48:06;11.90;99.90
54158;DHT22;40065;49.894;10.358;2022-10-31T03:53:43;11.90;99.90
54158;DHT22;40065;49.894;10.358;2022-10-31T03:59:22;11.70;99.90
54158;DHT22;40065;49.894;10.358;2022-10-31T04:04:26;11.70;99.90
54158;DHT22;40065;49.894;10.358;2022-10-31T04:09:31;11.50;99.90
54158;DHT22;40065;49.894;10.358;2022-10-31T04:14:37;11.50;99.90
54158;DHT22;40065;49.894;10.358;2022-10-31T04:19:40;11.40;99.90
54158;DHT22;40065;49.894;10.358;2022-10-31T04:24:42;11.20;99.90
54158;DHT22;40065;49.894;10.358;2022-10-31T04:29:48;11.30;99.90
54158;DHT22;40065;49.894;10.358;2022-10-31T04:34:52;11.30;99.90
54158;DHT22;40065;49.894;10.358;2022-10-31T04:39:53;11.30;99.90
54158;DHT22;40065;49.894;10.358;2022-10-31T04:45:14;11.40;99.90
54158;DHT22;40065;49.894;10.358;2022-10-31T04:50:24;11.40;99.90
54158;DHT22;40065;49.894;10.358;2022-10-31T04:55:26;11.50;99.90
54158;DHT22;40065;49.894;10.358;2022-10-31T05:00:55;11.60;99.90
54158;DHT22;40065;49.894;10.358;2022-10-31T05:05:57;11.60;99.90
54158;DHT22;40065;49.894;10.358;2022-10-31T05:11:00;11.70;99.90
54158;DHT22;40065;49.894;10.358;2022-10-31T05:16:06;11.60;99.90
54158;DHT22;40065;49.894;10.358;2022-10-31T05:21:26;11.80;99.90
54158;DHT22;40065;49.894;10.358;2022-10-31T05:26:32;11.90;99.90
54158;DHT22;40065;49.894;10.358;2022-10-31T05:31:34;11.80;99.90
54158;DHT22;40065;49.894;10.358;2022-10-31T05:36:37;11.70;99.90
54158;DHT22;40065;49.894;10.358;2022-10-31T05:41:50;11.50;99.90
54158;DHT22;40065;49.894;10.358;2022-10-31T05:47:01;11.60;99.90
54158;DHT22;40065;49.894;10.358;2022-10-31T05:52:25;11.60;99.90
54158;DHT22;40065;49.894;10.358;2022-10-31T05:57:35;11.50;99.90
54158;DHT22;40065;49.894;10.358;2022-10-31T06:02:37;11.60;99.90
54158;DHT22;40065;49.894;10.358;2022-10-31T06:08:01;11.70;99.90
54158;DHT22;40065;49.894;10.358;2022-10-31T06:13:05;11.80;99.90
54158;DHT22;40065;49.894;10.358;2022-10-31T06:18:30;12.00;99.90
54158;DHT22;40065;49.894;10.358;2022-10-31T06:23:33;12.10;99.90
54158;DHT22;40065;49.894;10.358;2022-10-31T06:28:55;12.10;99.90
54158;DHT22;40065;49.894;10.358;2022-10-31T06:34:21;12.20;99.90
54158;DHT22;40065;49.894;10.358;2022-10-31T06:39:23;12.40;99.90
54158;DHT22;40065;49.894;10.358;2022-10-31T06:44:25;12.50;99.90
54158;DHT22;40065;49.894;10.358;2022-10-31T06:49:27;12.60;99.90
54158;DHT22;40065;49.894;10.358;2022-10-31T06:54:32;12.80;99.90
54158;DHT22;40065;49.894;10.358;2022-10-31T06:59:34;12.80;99.90
54158;DHT22;40065;49.894;10.358;2022-10-31T07:04:45;12.70;99.90
54158;DHT22;40065;49.894;10.358;2022-10-31T07:09:49;12.50;99.90
54158;DHT22;40065;49.894;10.358;2022-10-31T07:14:54;12.50;99.90
54158;DHT22;40065;49.894;10.358;2022-10-31T07:19:56;12.30;99.90
54158;DHT22;40065;49.894;10.358;2022-10-31T07:24:58;12.20;99.90
54158;DHT22;40065;49.894;10.358;2022-10-31T07:30:25;12.30;99.90
54158;DHT22;40065;49.894;10.358;2022-10-31T07:35:30;12.30;99.90
54158;DHT22;40065;49.894;10.358;2022-10-31T07:40:33;12.40;99.90
54158;DHT22;40065;49.894;10.358;2022-10-31T07:45:35;12.70;99.90
54158;DHT22;40065;49.894;10.358;2022-10-31T07:51:05;13.00;99.90
54158;DHT22;40065;49.894;10.358;2022-10-31T07:56:27;13.20;99.90
54158;DHT22;40065;49.894;10.358;2022-10-31T08:01:29;13.20;99.90
54158;DHT22;40065;49.894;10.358;2022-10-31T08:06:50;13.40;99.90
54158;DHT22;40065;49.894;10.358;2022-10-31T08:12:01;13.70;99.90
54158;DHT22;40065;49.894;10.358;2022-10-31T08:17:04;13.70;99.90
54158;DHT22;40065;49.894;10.358;2022-10-31T08:22:15;14.00;99.90
54158;DHT22;40065;49.894;10.358;2022-10-31T08:27:16;14.20;99.90
54158;DHT22;40065;49.894;10.358;2022-10-31T08:32:18;14.40;99.90
54158;DHT22;40065;49.894;10.358;2022-10-31T08:37:26;14.50;99.90
54158;DHT22;40065;49.894;10.358;2022-10-31T08:42:29;14.70;99.90
54158;DHT22;40065;49.894;10.358;2022-10-31T08:47:32;14.10;99.90
54158;DHT22;40065;49.894;10.358;2022-10-31T08:52:34;14.40;99.90
54158;DHT22;40065;49.894;10.358;2022-10-31T08:57:57;14.30;99.90
54158;DHT22;40065;49.894;10.358;2022-10-31T09:03:13;14.50;99.90
54158;DHT22;40065;49.894;10.358;2022-10-31T09:08:17;14.70;99.90
54158;DHT22;40065;49.894;10.358;2022-10-31T09:13:21;14.50;99.90
54158;DHT22;40065;49.894;10.358;2022-10-31T09:18:47;14.60;99.90
54158;DHT22;40065;49.894;10.358;2022-10-31T09:23:50;15.10;99.90
54158;DHT22;40065;49.894;10.358;2022-10-31T09:28:55;15.20;99.90
54158;DHT22;40065;49.894;10.358;2022-10-31T09:33:58;15.20;99.90
54158;DHT22;40065;49.894;10.358;2022-10-31T09:39:11;15.20;99.90
54158;DHT22;40065;49.894;10.358;2022-10-31T09:44:18;15.10;99.90
54158;DHT22;40065;49.894;10.358;2022-10-31T09:54:59;15.00;99.90
54158;DHT22;40065;49.894;10.358;2022-10-31T10:00:05;14.90;99.90
54158;DHT22;40065;49.894;10.358;2022-10-31T10:05:20;14.70;99.90
54158;DHT22;40065;49.894;10.358;2022-10-31T10:21:28;15.20;99.90
54158;DHT22;40065;49.894;10.358;2022-10-31T10:26:38;15.10;99.90
54158;DHT22;40065;49.894;10.358;2022-10-31T10:31:42;15.50;99.90
54158;DHT22;40065;49.894;10.358;2022-10-31T10:42:10;16.00;99.90
54158;DHT22;40065;49.894;10.358;2022-10-31T10:47:41;15.70;99.90
54158;DHT22;40065;49.894;10.358;2022-10-31T10:58:01;15.80;99.90
54158;DHT22;40065;49.894;10.358;2022-10-31T11:03:04;16.00;99.90
54158;DHT22;40065;49.894;10.358;2022-10-31T11:08:07;16.20;99.90
54158;DHT22;40065;49.894;10.358;2022-10-31T11:18:37;16.90;99.90
54158;DHT22;40065;49.894;10.358;2022-10-31T11:23:40;16.90;99.90
54158;DHT22;40065;49.894;10.358;2022-10-31T11:28:42;16.60;99.90
54158;DHT22;40065;49.894;10.358;2022-10-31T11:38:45;16.80;99.90
54158;DHT22;40065;49.894;10.358;2022-10-31T11:44:00;17.20;99.90
54158;DHT22;40065;49.894;10.358;2022-10-31T11:49:03;17.80;99.90
54158;DHT22;40065;49.894;10.358;2022-10-31T11:54:06;17.90;99.90
54158;DHT22;40065;49.894;10.358;2022-10-31T11:59:32;17.90;99.90
54158;DHT22;40065;49.894;10.358;2022-10-31T12:04:41;17.70;99.90
54158;DHT22;40065;49.894;10.358;2022-10-31T12:09:45;17.90;99.90
54158;DHT22;40065;49.894;10.358;2022-10-31T12:15:02;18.00;99.90
54158;DHT22;40065;49.894;10.358;2022-10-31T12:20:37;17.90;99.90
54158;DHT22;40065;49.894;10.358;2022-10-31T12:26:02;17.90;99.90
54158;DHT22;40065;49.894;10.358;2022-10-31T12:31:31;18.00;99.90
54158;DHT22;40065;49.894;10.358;2022-10-31T12:37:30;18.20;99.90
54158;DHT22;40065;49.894;10.358;2022-10-31T12:42:23;18.10;99.90
54158;DHT22;40065;49.894;10.358;2022-10-31T12:58:20;18.20;99.90
54158;DHT22;40065;49.894;10.358;2022-10-31T13:03:33;18.20;99.90
54158;DHT22;40065;49.894;10.358;2022-10-31T13:08:41;18.30;99.90
54158;DHT22;40065;49.894;10.358;2022-10-31T13:14:02;18.20;99.90
54158;DHT22;40065;49.894;10.358;2022-10-31T13:19:18;18.10;99.90
54158;DHT22;40065;49.894;10.358;2022-10-31T13:24:26;18.20;99.90
54158;DHT22;40065;49.894;10.358;2022-10-31T13:29:33;18.10;99.90
54158;DHT22;40065;49.894;10.358;2022-10-31T13:34:42;18.00;99.90
54158;DHT22;40065;49.894;10.358;2022-10-31T13:45:23;17.90;99.90
54158;DHT22;40065;49.894;10.358;2022-10-31T13:50:30;17.80;99.90
54158;DHT22;40065;49.894;10.358;2022-10-31T13:55:42;17.80;99.90
54158;DHT22;40065;49.894;10.358;2022-10-31T14:00:45;17.80;99.90
54158;DHT22;40065;49.894;10.358;2022-10-31T14:05:53;18.00;99.90
54158;DHT22;40065;49.894;10.358;2022-10-31T14:10:56;17.90;99.90
54158;DHT22;40065;49.894;10.358;2022-10-31T14:16:04;17.80;99.90
54158;DHT22;40065;49.894;10.358;2022-10-31T14:21:30;17.80;99.90
54158;DHT22;40065;49.894;10.358;2022-10-31T14:26:35;17.80;99.90
54158;DHT22;40065;49.894;10.358;2022-10-31T14:31:41;17.90;99.90
54158;DHT22;40065;49.894;10.358;2022-10-31T14:47:57;17.60;99.90
54158;DHT22;40065;49.894;10.358;2022-10-31T14:53:16;17.60;99.90
54158;DHT22;40065;49.894;10.358;2022-10-31T14:58:22;17.30;99.90
54158;DHT22;40065;49.894;10.358;2022-10-31T15:03:42;17.10;99.90
54158;DHT22;40065;49.894;10.358;2022-10-31T15:09:24;17.10;99.90
54158;DHT22;40065;49.894;10.358;2022-10-31T15:14:27;17.10;99.90
54158;DHT22;40065;49.894;10.358;2022-10-31T15:19:32;16.90;99.90
54158;DHT22;40065;49.894;10.358;2022-10-31T15:24:37;16.80;99.90
54158;DHT22;40065;49.894;10.358;2022-10-31T15:29:54;16.90;99.90
54158;DHT22;40065;49.894;10.358;2022-10-31T15:34:56;16.80;99.90
54158;DHT22;40065;49.894;10.358;2022-10-31T15:40:07;16.80;99.90
54158;DHT22;40065;49.894;10.358;2022-10-31T15:50:36;16.30;99.90
54158;DHT22;40065;49.894;10.358;2022-10-31T15:55:53;16.20;99.90
54158;DHT22;40065;49.894;10.358;2022-10-31T16:00:59;16.10;99.90
54158;DHT22;40065;49.894;10.358;2022-10-31T16:06:04;16.10;99.90
54158;DHT22;40065;49.894;10.358;2022-10-31T16:16:13;15.80;99.90
54158;DHT22;40065;49.894;10.358;2022-10-31T16:21:37;15.70;99.90
54158;DHT22;40065;49.894;10.358;2022-10-31T16:26:39;15.40;99.90
54158;DHT22;40065;49.894;10.358;2022-10-31T16:31:41;15.20;99.90
54158;DHT22;40065;49.894;10.358;2022-10-31T16:36:43;15.20;99.90
54158;DHT22;40065;49.894;10.358;2022-10-31T16:41:47;15.20;99.90
54158;DHT22;40065;49.894;10.358;2022-10-31T16:47:13;15.10;99.90
54158;DHT22;40065;49.894;10.358;2022-10-31T16:52:18;14.90;99.90
54158;DHT22;40065;49.894;10.358;2022-10-31T16:57:28;14.80;99.90
54158;DHT22;40065;49.894;10.358;2022-10-31T17:02:31;14.60;99.90
54158;DHT22;40065;49.894;10.358;2022-10-31T17:07:33;14.60;99.90
54158;DHT22;40065;49.894;10.358;2022-10-31T17:12:34;14.60;99.90
54158;DHT22;40065;49.894;10.358;2022-10-31T17:17:37;14.40;99.90
54158;DHT22;40065;49.894;10.358;2022-10-31T17:22:38;14.30;99.90
54158;DHT22;40065;49.894;10.358;2022-10-31T17:27:45;14.30;99.90
54158;DHT22;40065;49.894;10.358;2022-10-31T17:32:48;14.10;99.90
54158;DHT22;40065;49.894;10.358;2022-10-31T17:37:50;14.30;99.90
54158;DHT22;40065;49.894;10.358;2022-10-31T17:42:54;14.40;99.90
54158;DHT22;40065;49.894;10.358;2022-10-31T17:47:56;14.40;99.90
54158;DHT22;40065;49.894;10.358;2022-10-31T17:52:58;14.40;99.90
54158;DHT22;40065;49.894;10.358;2022-10-31T17:58:01;14.30;99.90
54158;DHT22;40065;49.894;10.358;2022-10-31T18:03:03;14.00;99.90
54158;DHT22;40065;49.894;10.358;2022-10-31T18:08:06;13.80;99.90
54158;DHT22;40065;49.894;10.358;2022-10-31T18:13:07;13.50;99.90
54158;DHT22;40065;49.894;10.358;2022-10-31T18:18:09;13.40;99.90
54158;DHT22;40065;49.894;10.358;2022-10-31T18:23:11;13.20;99.90
54158;DHT22;40065;49.894;10.358;2022-10-31T18:28:13;13.30;99.90
54158;DHT22;40065;49.894;10.358;2022-10-31T18:33:15;13.40;99.90
54158;DHT22;40065;49.894;10.358;2022-10-31T18:38:17;13.40;99.90
54158;DHT22;40065;49.894;10.358;2022-10-31T18:43:18;13.30;99.90
54158;DHT22;40065;49.894;10.358;2022-10-31T18:48:20;13.50;99.90
54158;DHT22;40065;49.894;10.358;2022-10-31T18:53:23;13.40;99.90
54158;DHT22;40065;49.894;10.358;2022-10-31T18:58:26;13.20;99.90
54158;DHT22;40065;49.894;10.358;2022-10-31T19:03:28;13.20;99.90
54158;DHT22;40065;49.894;10.358;2022-10-31T19:08:30;13.20;99.90
54158;DHT22;40065;49.894;10.358;2022-10-31T19:13:33;13.20;99.90
54158;DHT22;40065;49.894;10.358;2022-10-31T19:18:36;13.30;99.90
54158;DHT22;40065;49.894;10.358;2022-10-31T19:23:38;13.40;99.90
54158;DHT22;40065;49.894;10.358;2022-10-31T19:28:40;13.40;99.90
54158;DHT22;40065;49.894;10.358;2022-10-31T19:33:42;13.40;99.90
54158;DHT22;40065;49.894;10.358;2022-10-31T19:38:47;13.30;99.90
54158;DHT22;40065;49.894;10.358;2022-10-31T19:43:49;13.30;99.90
54158;DHT22;40065;49.894;10.358;2022-10-31T19:48:51;13.20;99.90
54158;DHT22;40065;49.894;10.358;2022-10-31T19:53:53;13.10;99.90
54158;DHT22;40065;49.894;10.358;2022-10-31T19:58:56;12.90;99.90
54158;DHT22;40065;49.894;10.358;2022-10-31T20:03:57;12.70;99.90
54158;DHT22;40065;49.894;10.358;2022-10-31T20:09:05;12.50;99.90
54158;DHT22;40065;49.894;10.358;2022-10-31T20:14:11;12.50;99.90
54158;DHT22;40065;49.894;10.358;2022-10-31T20:19:13;12.50;99.90
54158;DHT22;40065;49.894;10.358;2022-10-31T20:24:15;12.50;99.90
54158;DHT22;40065;49.894;10.358;2022-10-31T20:29:17;12.30;99.90
54158;DHT22;40065;49.894;10.358;2022-10-31T20:34:19;12.30;99.90
54158;DHT22;40065;49.894;10.358;2022-10-31T20:39:21;12.30;99.90
54158;DHT22;40065;49.894;10.358;2022-10-31T20:44:23;12.30;99.90
54158;DHT22;40065;49.894;10.358;2022-10-31T20:49:25;12.50;99.90
54158;DHT22;40065;49.894;10.358;2022-10-31T20:54:26;12.30;99.90
54158;DHT22;40065;49.894;10.358;2022-10-31T20:59:28;12.30;99.90
54158;DHT22;40065;49.894;10.358;2022-10-31T21:04:30;12.30;99.90
54158;DHT22;40065;49.894;10.358;2022-10-31T21:09:32;12.30;99.90
54158;DHT22;40065;49.894;10.358;2022-10-31T21:14:33;12.40;99.90
54158;DHT22;40065;49.894;10.358;2022-10-31T21:19:37;12.40;99.90
54158;DHT22;40065;49.894;10.358;2022-10-31T21:24:38;12.30;99.90
54158;DHT22;40065;49.894;10.358;2022-10-31T21:29:41;12.30;99.90
54158;DHT22;40065;49.894;10.358;2022-10-31T21:34:43;12.30;99.90
54158;DHT22;40065;49.894;10.358;2022-10-31T21:39:45;12.40;99.90
54158;DHT22;40065;49.894;10.358;2022-10-31T21:44:51;12.50;99.90
54158;DHT22;40065;49.894;10.358;2022-10-31T21:49:53;12.30;99.90
54158;DHT22;40065;49.894;10.358;2022-10-31T21:54:55;12.20;99.90
54158;DHT22;40065;49.894;10.358;2022-10-31T21:59:56;12.00;99.90
54158;DHT22;40065;49.894;10.358;2022-10-31T22:04:58;11.90;99.90
54158;DHT22;40065;49.894;10.358;2022-10-31T22:10:00;11.90;99.90
54158;DHT22;40065;49.894;10.358;2022-10-31T22:15:02;11.80;99.90
54158;DHT22;40065;49.894;10.358;2022-10-31T22:20:04;11.90;99.90
54158;DHT22;40065;49.894;10.358;2022-10-31T22:25:06;12.20;99.90
54158;DHT22;40065;49.894;10.358;2022-10-31T22:30:09;12.40;99.90
54158;DHT22;40065;49.894;10.358;2022-10-31T22:35:11;12.50;99.90
54158;DHT22;40065;49.894;10.358;2022-10-31T22:40:12;12.40;99.90
54158;DHT22;40065;49.894;10.358;2022-10-31T22:45:14;12.00;99.90
54158;DHT22;40065;49.894;10.358;2022-10-31T22:50:16;11.80;99.90
54158;DHT22;40065;49.894;10.358;2022-10-31T22:55:18;11.80;99.90
54158;DHT22;40065;49.894;10.358;2022-10-31T23:00:20;11.80;99.90
54158;DHT22;40065;49.894;10.358;2022-10-31T23:05:22;12.10;99.90
54158;DHT22;40065;49.894;10.358;2022-10-31T23:10:23;11.60;99.90
54158;DHT22;40065;49.894;10.358;2022-10-31T23:15:36;11.40;99.90
54158;DHT22;40065;49.894;10.358;2022-10-31T23:20:38;11.50;99.90
54158;DHT22;40065;49.894;10.358;2022-10-31T23:25:44;11.60;99.90
54158;DHT22;40065;49.894;10.358;2022-10-31T23:31:05;11.70;99.90
54158;DHT22;40065;49.894;10.358;2022-10-31T23:36:07;11.90;99.90
54158;DHT22;40065;49.894;10.358;2022-10-31T23:41:09;11.90;99.90
54158;DHT22;40065;49.894;10.358;2022-10-31T23:46:11;12.10;99.90
54158;DHT22;40065;49.894;10.358;2022-10-31T23:51:13;12.30;99.90
54158;DHT22;40065;49.894;10.358;2022-10-31T23:56:15;12.20;99.90
